sensor_id;sensor_type;location;lat;lon;timestamp;P1;durP1;ratioP1;P2;durP2;ratioP2
50301;SDS011;36550;50.472;19.744;2023-04-01T00:00:47;22.30;;;14.10;;
50301;SDS011;36550;50.472;19.744;2023-04-01T00:03:31;28.10;;;16.00;;
50301;SDS011;36550;50.472;19.744;2023-04-01T00:06:16;25.10;;;15.00;;
50301;SDS011;36550;50.472;19.744;2023-04-01T00:09:02;26.20;;;14.80;;
50301;SDS011;36550;50.472;19.744;2023-04-01T00:11:46;23.20;;;13.20;;
50301;SDS011;36550;50.472;19.744;2023-04-01T00:14:31;21.80;;;11.70;;
50301;SDS011;36550;50.472;19.744;2023-04-01T00:17:14;18.90;;;11.30;;
50301;SDS011;36550;50.472;19.744;2023-04-01T00:19:58;23.70;;;12.80;;
50301;SDS011;36550;50.472;19.744;2023-04-01T00:22:43;18.80;;;10.70;;
50301;SDS011;36550;50.472;19.744;2023-04-01T00:25:27;15.70;;;9.50;;
50301;SDS011;36550;50.472;19.744;2023-04-01T00:28:11;18.30;;;10.60;;
50301;SDS011;36550;50.472;19.744;2023-04-01T00:30:55;20.30;;;10.40;;
50301;SDS011;36550;50.472;19.744;2023-04-01T00:33:39;20.30;;;12.60;;
50301;SDS011;36550;50.472;19.744;2023-04-01T00:36:24;22.10;;;12.20;;
50301;SDS011;36550;50.472;19.744;2023-04-01T00:39:09;21.60;;;11.80;;
50301;SDS011;36550;50.472;19.744;2023-04-01T00:41:52;20.20;;;12.80;;
50301;SDS011;36550;50.472;19.744;2023-04-01T00:44:36;22.00;;;13.10;;
50301;SDS011;36550;50.472;19.744;2023-04-01T00:47:21;23.70;;;11.30;;
50301;SDS011;36550;50.472;19.744;2023-04-01T00:50:07;20.70;;;12.20;;
50301;SDS011;36550;50.472;19.744;2023-04-01T00:52:52;22.40;;;13.00;;
50301;SDS011;36550;50.472;19.744;2023-04-01T00:55:37;22.00;;;13.30;;
50301;SDS011;36550;50.472;19.744;2023-04-01T00:58:25;28.70;;;18.50;;
50301;SDS011;36550;50.472;19.744;2023-04-01T01:01:13;23.00;;;13.80;;
50301;SDS011;36550;50.472;19.744;2023-04-01T01:03:57;24.20;;;13.40;;
50301;SDS011;36550;50.472;19.744;2023-04-01T01:09:53;21.60;;;11.40;;
50301;SDS011;36550;50.472;19.744;2023-04-01T01:15:32;21.30;;;9.80;;
50301;SDS011;36550;50.472;19.744;2023-04-01T01:24:51;19.70;;;9.80;;
50301;SDS011;36550;50.472;19.744;2023-04-01T01:28:02;20.30;;;12.30;;
50301;SDS011;36550;50.472;19.744;2023-04-01T01:37:18;19.40;;;10.40;;
50301;SDS011;36550;50.472;19.744;2023-04-01T01:40:07;21.90;;;10.40;;
50301;SDS011;36550;50.472;19.744;2023-04-01T01:42:56;17.70;;;9.90;;
50301;SDS011;36550;50.472;19.744;2023-04-01T01:45:48;17.30;;;9.70;;
50301;SDS011;36550;50.472;19.744;2023-04-01T01:48:36;18.80;;;9.20;;
50301;SDS011;36550;50.472;19.744;2023-04-01T01:51:21;19.10;;;8.80;;
50301;SDS011;36550;50.472;19.744;2023-04-01T01:54:06;14.30;;;8.00;;
50301;SDS011;36550;50.472;19.744;2023-04-01T01:56:51;13.70;;;8.60;;
50301;SDS011;36550;50.472;19.744;2023-04-01T01:59:38;15.20;;;9.50;;
50301;SDS011;36550;50.472;19.744;2023-04-01T02:02:26;17.90;;;10.10;;
50301;SDS011;36550;50.472;19.744;2023-04-01T02:05:16;16.40;;;8.70;;
50301;SDS011;36550;50.472;19.744;2023-04-01T02:08:07;15.80;;;8.70;;
50301;SDS011;36550;50.472;19.744;2023-04-01T02:10:56;13.20;;;8.00;;
50301;SDS011;36550;50.472;19.744;2023-04-01T02:13:54;17.40;;;7.80;;
50301;SDS011;36550;50.472;19.744;2023-04-01T02:16:47;14.50;;;8.10;;
50301;SDS011;36550;50.472;19.744;2023-04-01T02:19:39;13.20;;;8.00;;
50301;SDS011;36550;50.472;19.744;2023-04-01T02:22:34;17.40;;;8.80;;
50301;SDS011;36550;50.472;19.744;2023-04-01T02:25:22;17.40;;;9.50;;
50301;SDS011;36550;50.472;19.744;2023-04-01T02:28:09;14.00;;;8.30;;
50301;SDS011;36550;50.472;19.744;2023-04-01T02:30:55;17.40;;;9.30;;
50301;SDS011;36550;50.472;19.744;2023-04-01T02:33:41;16.70;;;9.80;;
50301;SDS011;36550;50.472;19.744;2023-04-01T02:36:25;16.50;;;9.30;;
50301;SDS011;36550;50.472;19.744;2023-04-01T02:39:10;14.30;;;8.80;;
50301;SDS011;36550;50.472;19.744;2023-04-01T02:41:53;17.90;;;9.70;;
50301;SDS011;36550;50.472;19.744;2023-04-01T02:44:38;14.70;;;8.40;;
50301;SDS011;36550;50.472;19.744;2023-04-01T02:47:21;15.50;;;7.40;;
50301;SDS011;36550;50.472;19.744;2023-04-01T02:50:06;14.30;;;8.30;;
50301;SDS011;36550;50.472;19.744;2023-04-01T02:52:50;15.00;;;9.40;;
50301;SDS011;36550;50.472;19.744;2023-04-01T02:55:34;17.90;;;11.20;;
50301;SDS011;36550;50.472;19.744;2023-04-01T02:58:18;18.30;;;10.00;;
50301;SDS011;36550;50.472;19.744;2023-04-01T03:01:02;25.80;;;15.10;;
50301;SDS011;36550;50.472;19.744;2023-04-01T03:03:46;24.30;;;13.10;;
50301;SDS011;36550;50.472;19.744;2023-04-01T03:06:30;23.50;;;12.90;;
50301;SDS011;36550;50.472;19.744;2023-04-01T03:09:14;19.60;;;11.60;;
50301;SDS011;36550;50.472;19.744;2023-04-01T03:11:59;23.30;;;11.00;;
50301;SDS011;36550;50.472;19.744;2023-04-01T03:14:43;23.20;;;12.00;;
50301;SDS011;36550;50.472;19.744;2023-04-01T03:17:27;20.40;;;12.10;;
50301;SDS011;36550;50.472;19.744;2023-04-01T03:20:11;18.00;;;10.60;;
50301;SDS011;36550;50.472;19.744;2023-04-01T03:22:56;23.80;;;9.70;;
50301;SDS011;36550;50.472;19.744;2023-04-01T03:25:39;18.60;;;8.90;;
50301;SDS011;36550;50.472;19.744;2023-04-01T03:28:23;15.30;;;8.40;;
50301;SDS011;36550;50.472;19.744;2023-04-01T03:31:07;13.60;;;7.50;;
50301;SDS011;36550;50.472;19.744;2023-04-01T03:33:52;15.20;;;8.00;;
50301;SDS011;36550;50.472;19.744;2023-04-01T03:36:36;15.20;;;7.60;;
50301;SDS011;36550;50.472;19.744;2023-04-01T03:39:20;16.90;;;9.60;;
50301;SDS011;36550;50.472;19.744;2023-04-01T03:42:05;14.30;;;8.40;;
50301;SDS011;36550;50.472;19.744;2023-04-01T03:44:50;14.10;;;8.20;;
50301;SDS011;36550;50.472;19.744;2023-04-01T03:47:34;15.00;;;8.00;;
50301;SDS011;36550;50.472;19.744;2023-04-01T03:50:18;11.10;;;6.60;;
50301;SDS011;36550;50.472;19.744;2023-04-01T03:53:03;14.70;;;7.50;;
50301;SDS011;36550;50.472;19.744;2023-04-01T03:55:46;12.60;;;7.30;;
50301;SDS011;36550;50.472;19.744;2023-04-01T03:58:31;11.10;;;7.20;;
50301;SDS011;36550;50.472;19.744;2023-04-01T04:01:18;15.20;;;8.90;;
50301;SDS011;36550;50.472;19.744;2023-04-01T04:04:05;15.80;;;7.90;;
50301;SDS011;36550;50.472;19.744;2023-04-01T04:06:49;14.70;;;7.50;;
50301;SDS011;36550;50.472;19.744;2023-04-01T04:09:34;14.40;;;8.40;;
50301;SDS011;36550;50.472;19.744;2023-04-01T04:12:18;13.00;;;8.30;;
50301;SDS011;36550;50.472;19.744;2023-04-01T04:15:02;14.90;;;8.90;;
50301;SDS011;36550;50.472;19.744;2023-04-01T04:17:47;15.60;;;8.30;;
50301;SDS011;36550;50.472;19.744;2023-04-01T04:20:31;12.60;;;7.40;;
50301;SDS011;36550;50.472;19.744;2023-04-01T04:23:15;18.20;;;8.20;;
50301;SDS011;36550;50.472;19.744;2023-04-01T04:26:00;12.10;;;7.20;;
50301;SDS011;36550;50.472;19.744;2023-04-01T04:28:47;14.80;;;7.40;;
50301;SDS011;36550;50.472;19.744;2023-04-01T04:31:32;10.60;;;6.00;;
50301;SDS011;36550;50.472;19.744;2023-04-01T04:34:16;13.10;;;6.30;;
50301;SDS011;36550;50.472;19.744;2023-04-01T04:36:59;10.50;;;5.80;;
50301;SDS011;36550;50.472;19.744;2023-04-01T04:39:44;11.70;;;6.30;;
50301;SDS011;36550;50.472;19.744;2023-04-01T04:42:27;14.50;;;6.70;;
50301;SDS011;36550;50.472;19.744;2023-04-01T04:45:11;14.30;;;6.80;;
50301;SDS011;36550;50.472;19.744;2023-04-01T04:47:56;15.30;;;7.10;;
50301;SDS011;36550;50.472;19.744;2023-04-01T04:50:40;16.00;;;9.00;;
50301;SDS011;36550;50.472;19.744;2023-04-01T04:53:24;13.60;;;7.80;;
50301;SDS011;36550;50.472;19.744;2023-04-01T04:56:09;12.50;;;7.80;;
50301;SDS011;36550;50.472;19.744;2023-04-01T04:58:53;10.30;;;6.90;;
50301;SDS011;36550;50.472;19.744;2023-04-01T05:01:37;12.00;;;7.10;;
50301;SDS011;36550;50.472;19.744;2023-04-01T05:04:21;13.30;;;7.80;;
50301;SDS011;36550;50.472;19.744;2023-04-01T05:07:05;15.50;;;8.70;;
50301;SDS011;36550;50.472;19.744;2023-04-01T05:09:49;14.60;;;9.00;;
50301;SDS011;36550;50.472;19.744;2023-04-01T05:12:33;15.60;;;9.00;;
50301;SDS011;36550;50.472;19.744;2023-04-01T05:15:19;14.40;;;9.00;;
50301;SDS011;36550;50.472;19.744;2023-04-01T05:18:03;12.60;;;7.70;;
50301;SDS011;36550;50.472;19.744;2023-04-01T05:20:51;13.30;;;6.80;;
50301;SDS011;36550;50.472;19.744;2023-04-01T05:23:37;12.60;;;7.00;;
50301;SDS011;36550;50.472;19.744;2023-04-01T05:26:21;11.70;;;5.80;;
50301;SDS011;36550;50.472;19.744;2023-04-01T05:29:04;15.10;;;8.60;;
50301;SDS011;36550;50.472;19.744;2023-04-01T05:31:49;15.50;;;7.50;;
50301;SDS011;36550;50.472;19.744;2023-04-01T05:34:33;10.20;;;7.70;;
50301;SDS011;36550;50.472;19.744;2023-04-01T05:37:17;13.50;;;8.10;;
50301;SDS011;36550;50.472;19.744;2023-04-01T05:40:04;13.70;;;8.00;;
50301;SDS011;36550;50.472;19.744;2023-04-01T05:42:49;13.20;;;8.20;;
50301;SDS011;36550;50.472;19.744;2023-04-01T05:45:34;14.70;;;8.10;;
50301;SDS011;36550;50.472;19.744;2023-04-01T05:48:18;11.80;;;6.70;;
50301;SDS011;36550;50.472;19.744;2023-04-01T05:51:02;14.50;;;8.20;;
50301;SDS011;36550;50.472;19.744;2023-04-01T05:53:48;14.70;;;7.90;;
50301;SDS011;36550;50.472;19.744;2023-04-01T05:56:32;11.50;;;7.20;;
50301;SDS011;36550;50.472;19.744;2023-04-01T05:59:16;12.60;;;7.50;;
50301;SDS011;36550;50.472;19.744;2023-04-01T06:02:00;13.40;;;8.10;;
50301;SDS011;36550;50.472;19.744;2023-04-01T06:04:45;11.50;;;8.30;;
50301;SDS011;36550;50.472;19.744;2023-04-01T06:07:29;16.90;;;7.50;;
50301;SDS011;36550;50.472;19.744;2023-04-01T06:10:17;11.40;;;7.10;;
50301;SDS011;36550;50.472;19.744;2023-04-01T06:13:16;12.00;;;6.50;;
50301;SDS011;36550;50.472;19.744;2023-04-01T06:19:17;12.90;;;7.90;;
50301;SDS011;36550;50.472;19.744;2023-04-01T06:22:32;13.50;;;7.40;;
50301;SDS011;36550;50.472;19.744;2023-04-01T06:25:46;12.00;;;7.50;;
50301;SDS011;36550;50.472;19.744;2023-04-01T06:28:59;10.20;;;6.70;;
50301;SDS011;36550;50.472;19.744;2023-04-01T06:32:01;14.40;;;8.00;;
50301;SDS011;36550;50.472;19.744;2023-04-01T06:38:20;17.10;;;7.60;;
50301;SDS011;36550;50.472;19.744;2023-04-01T06:41:30;14.20;;;7.10;;
50301;SDS011;36550;50.472;19.744;2023-04-01T06:56:15;16.40;;;9.00;;
50301;SDS011;36550;50.472;19.744;2023-04-01T06:59:03;16.70;;;8.80;;
50301;SDS011;36550;50.472;19.744;2023-04-01T07:01:53;15.60;;;8.50;;
50301;SDS011;36550;50.472;19.744;2023-04-01T07:04:42;13.40;;;7.70;;
50301;SDS011;36550;50.472;19.744;2023-04-01T07:07:35;11.90;;;7.70;;
50301;SDS011;36550;50.472;19.744;2023-04-01T07:13:50;20.40;;;10.80;;
50301;SDS011;36550;50.472;19.744;2023-04-01T07:16:41;18.60;;;11.00;;
50301;SDS011;36550;50.472;19.744;2023-04-01T07:19:32;16.00;;;9.70;;
50301;SDS011;36550;50.472;19.744;2023-04-01T07:22:33;14.50;;;10.10;;
50301;SDS011;36550;50.472;19.744;2023-04-01T07:25:31;15.80;;;8.40;;
50301;SDS011;36550;50.472;19.744;2023-04-01T07:28:20;18.00;;;9.60;;
50301;SDS011;36550;50.472;19.744;2023-04-01T07:34:38;16.80;;;8.80;;
50301;SDS011;36550;50.472;19.744;2023-04-01T07:40:39;19.70;;;9.20;;
50301;SDS011;36550;50.472;19.744;2023-04-01T07:50:00;15.90;;;8.00;;
50301;SDS011;36550;50.472;19.744;2023-04-01T07:56:10;15.40;;;8.10;;
50301;SDS011;36550;50.472;19.744;2023-04-01T07:59:05;12.30;;;8.00;;
50301;SDS011;36550;50.472;19.744;2023-04-01T08:04:57;22.90;;;10.70;;
